Sebewaing, Michigan
Current Conditions -  °F | °C
As of 6:34 AM on Saturday 25 Oct 2014 (Local Time) from KCFS Reporting Station
Haze Haze  
Wind Chill:   Ceiling: 6000
Heat Index:   Visibility: 5mi
Dew Point:   Wind: 7mph
Humidity: 96%   Direction: 210°SSW
Pressure: 29.8"   Gusts: NA
Location:  43.73°N, 83.45°W
Report Text: KCFS 251034Z AUTO 21006KT 5SM BR SCT046 BKN060 OVC090 09/08 A2980 RMK AO2 T00860080
Loading
Personal Weather Stations






























Interactive Weather Map
Tropical Storm Tracking
New forecast layout! Learn more

10-Day Weather Forecast

Advertisements
Track Severe Weather on mobile